createdAt,value
2022-07-26T00:00:14.354Z,30.88
2022-07-26T00:02:47.503Z,32.58
2022-07-26T00:05:16.849Z,28.63
2022-07-26T00:07:44.530Z,29.40
2022-07-26T00:12:38.917Z,31.40
2022-07-26T00:15:08.750Z,35.28
2022-07-26T00:17:35.975Z,34.30
2022-07-26T00:20:03.656Z,32.35
2022-07-26T00:25:04.670Z,36.53
2022-07-26T00:27:32.800Z,43.75
2022-07-26T00:29:59.977Z,43.83
2022-07-26T00:32:27.573Z,36.80
2022-07-26T00:37:22.134Z,40.47
2022-07-26T00:39:49.948Z,41.03
2022-07-26T00:42:17.131Z,33.78
2022-07-26T00:44:45.395Z,38.63
2022-07-26T00:47:12.886Z,36.60
2022-07-26T00:49:40.242Z,49.28
2022-07-26T00:52:08.805Z,43.13
2022-07-26T00:54:37.157Z,49.00
2022-07-26T00:57:04.424Z,47.80
2022-07-26T00:59:31.821Z,44.65
2022-07-26T01:01:59.423Z,49.30
2022-07-26T01:04:27.509Z,40.35
2022-07-26T01:06:55.041Z,48.83
2022-07-26T01:09:22.426Z,44.85
2022-07-26T01:11:49.682Z,46.80
2022-07-26T01:14:17.342Z,47.38
2022-07-26T01:19:12.608Z,47.20
2022-07-26T01:24:07.953Z,53.97
2022-07-26T01:26:35.526Z,52.00
2022-07-26T01:29:02.823Z,43.20
2022-07-26T01:31:30.231Z,47.53
2022-07-26T01:33:57.690Z,49.65
2022-07-26T01:36:24.960Z,37.72
2022-07-26T01:38:52.395Z,48.75
2022-07-26T01:41:37.532Z,47.78
2022-07-26T01:44:06.510Z,50.53
2022-07-26T01:46:34.519Z,58.05
2022-07-26T01:51:29.611Z,50.65
2022-07-26T01:53:57.060Z,45.42
2022-07-26T01:56:24.399Z,47.97
2022-07-26T01:58:51.613Z,47.03
2022-07-26T02:01:38.010Z,48.58
2022-07-26T02:04:06.433Z,45.15
2022-07-26T02:06:34.418Z,60.15
2022-07-26T02:09:02.058Z,44.45
2022-07-26T02:13:57.281Z,34.83
2022-07-26T02:16:24.618Z,42.13
2022-07-26T02:18:52.021Z,33.30
2022-07-26T02:21:19.340Z,37.63
2022-07-26T02:23:46.479Z,37.47
2022-07-26T02:26:13.962Z,35.58
2022-07-26T02:28:41.843Z,33.53
2022-07-26T02:31:09.256Z,32.45
2022-07-26T02:33:39.159Z,44.78
2022-07-26T02:36:06.474Z,35.40
2022-07-26T02:38:33.711Z,40.72
2022-07-26T02:41:01.134Z,39.00
2022-07-26T02:43:30.685Z,33.65
2022-07-26T02:46:03.727Z,44.50
2022-07-26T02:48:32.039Z,35.63
2022-07-26T02:50:59.409Z,43.15
2022-07-26T02:53:26.624Z,42.38
2022-07-26T02:55:54.081Z,28.63
2022-07-26T02:58:21.824Z,39.67
2022-07-26T03:00:49.296Z,44.63
2022-07-26T03:03:16.847Z,37.38
2022-07-26T03:08:11.602Z,39.90
2022-07-26T03:10:39.256Z,34.10
2022-07-26T03:15:33.586Z,38.88
2022-07-26T03:18:01.401Z,42.75
2022-07-26T03:20:28.704Z,26.98
2022-07-26T03:22:55.821Z,24.45
2022-07-26T03:25:23.278Z,26.83
2022-07-26T03:27:50.664Z,22.33
2022-07-26T03:30:24.681Z,27.00
2022-07-26T03:32:52.714Z,23.65
2022-07-26T03:35:19.834Z,23.38
2022-07-26T03:37:47.078Z,17.52
2022-07-26T03:40:17.843Z,16.63
2022-07-26T03:42:45.895Z,21.02
2022-07-26T03:45:13.531Z,24.10
2022-07-26T03:47:41.105Z,17.65
2022-07-26T03:52:35.406Z,22.23
2022-07-26T03:55:23.029Z,18.15
2022-07-26T03:57:50.218Z,17.08
2022-07-26T04:00:17.705Z,16.90
2022-07-26T04:02:45.202Z,17.33
2022-07-26T04:07:43.269Z,14.18
2022-07-26T04:10:20.273Z,19.58
2022-07-26T04:12:47.583Z,13.18
2022-07-26T04:15:16.920Z,18.42
2022-07-26T04:17:44.547Z,14.05
2022-07-26T04:22:39.910Z,15.43
2022-07-26T04:25:08.103Z,26.38
2022-07-26T04:27:35.457Z,17.88
2022-07-26T04:30:02.738Z,16.05
2022-07-26T04:32:30.115Z,19.95
2022-07-26T04:34:57.234Z,15.93
2022-07-26T04:37:24.632Z,15.93
2022-07-26T04:39:55.037Z,16.83
2022-07-26T04:42:22.392Z,12.82
2022-07-26T04:44:49.608Z,19.05
2022-07-26T04:47:16.821Z,13.50
2022-07-26T04:49:44.282Z,15.90
2022-07-26T04:52:11.583Z,16.27
2022-07-26T04:54:38.902Z,18.95
2022-07-26T04:57:06.081Z,13.98
2022-07-26T04:59:34.701Z,11.07
2022-07-26T05:02:02.259Z,15.55
2022-07-26T05:07:02.416Z,12.85
2022-07-26T05:09:30.400Z,14.77
2022-07-26T05:11:57.955Z,16.38
2022-07-26T05:16:52.610Z,15.32
2022-07-26T05:19:19.921Z,13.90
2022-07-26T05:21:47.152Z,11.57
2022-07-26T05:24:14.560Z,13.63
2022-07-26T05:26:58.676Z,14.68
2022-07-26T05:29:26.003Z,13.10
2022-07-26T05:31:53.275Z,11.75
2022-07-26T05:34:20.788Z,14.00
2022-07-26T05:36:47.959Z,15.70
2022-07-26T05:39:16.172Z,11.88
2022-07-26T05:41:43.694Z,14.07
2022-07-26T05:44:11.274Z,15.18
2022-07-26T05:46:38.766Z,18.20
2022-07-26T05:49:06.376Z,13.48
2022-07-26T05:54:01.399Z,14.43
2022-07-26T05:56:28.917Z,16.25
2022-07-26T05:58:56.080Z,12.02
2022-07-26T06:01:23.249Z,16.67
2022-07-26T06:03:51.944Z,11.73
2022-07-26T06:08:46.259Z,8.88
2022-07-26T06:11:13.693Z,16.10
2022-07-26T06:13:40.879Z,9.95
2022-07-26T06:16:08.282Z,11.40
2022-07-26T06:18:35.764Z,7.55
2022-07-26T06:21:02.939Z,18.35
2022-07-26T06:23:33.564Z,7.80
2022-07-26T06:26:02.524Z,9.48
2022-07-26T06:30:56.794Z,18.20
2022-07-26T06:33:24.295Z,13.52
2022-07-26T06:35:51.415Z,12.90
2022-07-26T06:38:18.760Z,11.57
2022-07-26T06:40:46.025Z,11.25
2022-07-26T06:43:13.201Z,14.88
2022-07-26T06:45:40.399Z,10.48
2022-07-26T06:48:08.001Z,16.35
2022-07-26T06:53:02.315Z,11.82
2022-07-26T06:55:29.929Z,12.75
2022-07-26T07:00:24.336Z,6.10
2022-07-26T07:02:51.824Z,16.13
2022-07-26T07:05:19.041Z,12.20
2022-07-26T07:07:46.421Z,6.90
2022-07-26T07:10:13.955Z,6.05
2022-07-26T07:15:09.264Z,8.73
2022-07-26T07:17:36.536Z,10.05
2022-07-26T07:20:05.157Z,11.00
2022-07-26T07:22:32.562Z,14.93
2022-07-26T07:25:01.018Z,8.60
2022-07-26T07:27:30.196Z,8.90
2022-07-26T07:29:57.335Z,12.40
2022-07-26T07:32:25.374Z,6.90
2022-07-26T07:34:53.461Z,11.88
2022-07-26T07:37:20.617Z,11.40
2022-07-26T07:39:50.073Z,15.20
2022-07-26T07:42:18.203Z,13.85
2022-07-26T07:44:45.519Z,11.35
2022-07-26T07:47:12.916Z,8.65
2022-07-26T07:49:40.276Z,9.13
2022-07-26T07:52:07.452Z,11.50
2022-07-26T07:54:34.973Z,9.45
2022-07-26T07:57:02.578Z,9.30
2022-07-26T07:59:29.815Z,7.28
2022-07-26T08:01:57.262Z,8.70
2022-07-26T08:04:24.475Z,7.63
2022-07-26T08:06:51.724Z,6.28
2022-07-26T08:09:19.656Z,7.78
2022-07-26T08:11:50.639Z,5.97
2022-07-26T08:14:18.651Z,8.65
2022-07-26T08:16:46.060Z,10.45
2022-07-26T08:19:13.591Z,15.35
2022-07-26T08:21:45.687Z,8.82
2022-07-26T08:24:14.163Z,11.13
2022-07-26T08:26:41.299Z,8.70
2022-07-26T08:29:08.421Z,9.43
2022-07-26T08:31:35.866Z,10.00
2022-07-26T08:34:03.173Z,7.82
2022-07-26T08:36:32.723Z,8.90
2022-07-26T08:39:00.894Z,9.73
2022-07-26T08:41:28.101Z,5.75
2022-07-26T08:43:56.290Z,11.60
2022-07-26T08:46:26.012Z,9.70
2022-07-26T08:48:55.595Z,7.75
2022-07-26T08:51:24.368Z,9.30
2022-07-26T08:53:54.334Z,12.65
2022-07-26T08:56:21.599Z,8.70
2022-07-26T08:58:48.711Z,10.10
2022-07-26T09:01:16.184Z,12.60
2022-07-26T09:06:13.483Z,7.13
2022-07-26T09:08:40.927Z,13.20
2022-07-26T09:11:28.217Z,10.23
2022-07-26T09:14:13.896Z,9.90
2022-07-26T09:16:41.374Z,6.68
2022-07-26T09:21:36.963Z,8.00
2022-07-26T09:24:04.249Z,7.53
2022-07-26T09:26:31.500Z,10.98
2022-07-26T09:29:06.559Z,8.57
2022-07-26T09:31:34.991Z,11.38
2022-07-26T09:34:02.676Z,13.32
2022-07-26T09:38:59.097Z,12.13
2022-07-26T09:41:28.124Z,8.85
2022-07-26T09:43:59.901Z,12.35
2022-07-26T09:46:28.659Z,8.00
2022-07-26T09:49:12.488Z,9.45
2022-07-26T09:51:41.449Z,11.55
2022-07-26T09:54:10.201Z,9.00
2022-07-26T09:56:48.877Z,13.85
2022-07-26T09:59:17.375Z,8.23
2022-07-26T10:01:44.787Z,9.70
2022-07-26T12:21:39.374Z,7.25
2022-07-26T12:24:07.251Z,5.72
2022-07-26T12:26:34.883Z,3.65
2022-07-26T12:32:12.484Z,8.27
2022-07-26T12:34:41.048Z,7.13
2022-07-26T12:37:15.686Z,8.65
2022-07-26T12:39:43.406Z,7.65
2022-07-26T12:42:22.952Z,4.53
2022-07-26T12:45:01.565Z,4.93
2022-07-26T12:47:28.991Z,10.38
2022-07-26T12:49:56.754Z,10.35
2022-07-26T12:52:24.492Z,10.20
2022-07-26T12:54:52.291Z,8.98
2022-07-26T12:57:20.200Z,9.57
2022-07-26T12:59:48.412Z,7.25
2022-07-26T13:02:16.118Z,11.55
2022-07-26T13:04:43.317Z,7.38
2022-07-26T13:07:10.845Z,6.07
2022-07-26T13:12:06.243Z,8.52
2022-07-26T13:14:34.611Z,7.85
2022-07-26T13:17:02.490Z,6.65
2022-07-26T13:19:29.906Z,7.65
2022-07-26T13:21:57.627Z,5.53
2022-07-26T13:24:25.486Z,7.22
2022-07-26T13:26:54.644Z,5.53
2022-07-26T13:29:23.005Z,8.63
2022-07-26T13:31:51.055Z,7.03
2022-07-26T13:34:19.014Z,11.57
2022-07-26T13:36:46.817Z,7.55
2022-07-26T13:39:14.183Z,12.00
2022-07-26T13:41:41.389Z,9.38
2022-07-26T13:44:09.247Z,9.15
2022-07-26T13:46:38.544Z,5.50
2022-07-26T13:49:06.382Z,10.75
2022-07-26T13:51:56.595Z,7.95
2022-07-26T13:54:25.241Z,7.47
2022-07-26T13:56:52.585Z,6.60
2022-07-26T13:59:20.337Z,7.70
2022-07-26T14:01:47.859Z,10.32
2022-07-26T14:06:43.217Z,4.85
2022-07-26T14:09:11.124Z,6.85
2022-07-26T14:11:38.650Z,7.15
2022-07-26T14:14:06.523Z,7.22
2022-07-26T14:16:34.461Z,6.95
2022-07-26T14:19:02.025Z,8.40
2022-07-26T14:23:57.592Z,7.07
2022-07-26T14:26:25.364Z,8.05
2022-07-26T14:28:54.809Z,11.13
2022-07-26T14:31:22.146Z,8.32
2022-07-26T14:33:49.382Z,8.32
2022-07-26T14:36:16.806Z,9.20
2022-07-26T14:41:11.344Z,12.80
2022-07-26T14:46:05.805Z,13.23
2022-07-26T14:48:53.587Z,11.18
2022-07-26T14:51:20.423Z,8.77
2022-07-26T14:53:47.674Z,8.65
2022-07-26T14:56:14.816Z,8.73
2022-07-26T14:58:42.245Z,8.52
2022-07-26T15:01:09.509Z,12.82
2022-07-26T15:03:36.856Z,15.05
2022-07-26T15:06:04.305Z,12.13
2022-07-26T15:08:31.684Z,9.55
2022-07-26T15:10:58.869Z,15.32
2022-07-26T15:13:26.222Z,14.35
2022-07-26T15:15:54.349Z,12.45
2022-07-26T15:18:21.518Z,15.10
2022-07-26T15:20:51.004Z,14.93
2022-07-26T15:23:18.310Z,19.67
2022-07-26T15:25:48.717Z,14.80
2022-07-26T15:28:16.479Z,13.85
2022-07-26T15:30:43.939Z,18.48
2022-07-26T15:33:11.241Z,21.67
2022-07-26T15:35:40.605Z,20.23
2022-07-26T15:38:08.043Z,17.15
2022-07-26T15:40:35.310Z,15.13
2022-07-26T15:43:03.316Z,15.05
2022-07-26T15:45:33.243Z,14.27
2022-07-26T15:48:14.670Z,25.15
2022-07-26T15:50:44.135Z,17.70
2022-07-26T15:53:11.539Z,17.08
2022-07-26T15:55:38.807Z,13.48
2022-07-26T15:58:06.253Z,25.33
2022-07-26T16:00:33.383Z,19.55
2022-07-26T16:03:01.421Z,17.00
2022-07-26T16:05:28.824Z,18.08
2022-07-26T16:07:56.095Z,18.17
2022-07-26T16:10:23.232Z,17.70
2022-07-26T16:12:50.689Z,16.80
2022-07-26T16:15:17.972Z,13.07
2022-07-26T16:17:45.306Z,18.08
2022-07-26T16:20:12.671Z,25.20
2022-07-26T16:22:41.125Z,12.35
2022-07-26T16:25:08.930Z,13.13
2022-07-26T16:30:03.505Z,18.05
2022-07-26T16:32:30.649Z,22.55
2022-07-26T16:34:58.076Z,21.90
2022-07-26T16:37:25.303Z,16.25
2022-07-26T16:39:53.583Z,22.33
2022-07-26T16:42:20.926Z,16.73
2022-07-26T16:44:48.435Z,22.05
2022-07-26T16:49:43.187Z,11.82
2022-07-26T16:54:37.631Z,17.83
2022-07-26T16:57:04.971Z,13.07
2022-07-26T16:59:32.285Z,21.45
2022-07-26T17:02:01.612Z,21.13
2022-07-26T17:04:30.581Z,13.98
2022-07-26T17:07:23.570Z,16.90
2022-07-26T17:09:45.104Z,17.80
2022-07-26T17:12:12.239Z,22.73
2022-07-26T17:14:39.388Z,18.15
2022-07-26T17:17:06.834Z,21.35
2022-07-26T17:19:33.962Z,13.60
2022-07-26T17:22:01.331Z,14.48
2022-07-26T17:24:28.600Z,13.52
2022-07-26T17:26:57.379Z,17.15
2022-07-26T17:29:24.531Z,19.10
2022-07-26T17:31:51.841Z,11.30
2022-07-26T17:34:19.075Z,19.98
2022-07-26T17:36:46.666Z,20.15
2022-07-26T17:39:15.643Z,20.35
2022-07-26T17:41:47.487Z,16.70
2022-07-26T17:44:14.987Z,21.95
2022-07-26T17:46:42.594Z,20.05
2022-07-26T17:49:10.202Z,17.83
2022-07-26T17:51:37.627Z,22.08
2022-07-26T17:54:05.059Z,21.83
2022-07-26T17:56:32.624Z,19.45
2022-07-26T18:01:27.118Z,15.60
2022-07-26T18:03:54.478Z,15.98
2022-07-26T18:06:21.747Z,19.02
2022-07-26T18:08:49.224Z,16.70
2022-07-26T18:11:16.413Z,26.70
2022-07-26T18:13:43.766Z,27.70
2022-07-26T18:16:11.384Z,18.30
2022-07-26T18:18:38.877Z,17.33
2022-07-26T18:21:06.051Z,21.88
2022-07-26T18:23:33.393Z,18.38
2022-07-26T18:26:00.546Z,14.10
2022-07-26T18:28:27.692Z,18.73
2022-07-26T18:30:55.206Z,22.35
2022-07-26T18:35:50.008Z,16.48
2022-07-26T18:38:17.331Z,20.23
2022-07-26T18:40:44.562Z,16.98
2022-07-26T18:43:11.697Z,19.52
2022-07-26T18:45:39.168Z,20.13
2022-07-26T18:48:06.427Z,17.27
2022-07-26T18:50:35.026Z,25.75
2022-07-26T18:53:02.322Z,20.85
2022-07-26T18:55:29.735Z,17.92
2022-07-26T18:57:56.859Z,21.92
2022-07-26T19:00:25.138Z,21.20
2022-07-26T19:02:54.065Z,21.90
2022-07-26T19:05:24.918Z,19.95
2022-07-26T19:07:52.568Z,19.25
2022-07-26T19:12:48.556Z,22.65
2022-07-26T19:15:16.422Z,21.23
2022-07-26T19:17:43.707Z,20.58
2022-07-26T19:20:11.528Z,25.65
2022-07-26T19:22:38.839Z,18.60
2022-07-26T19:25:09.062Z,29.13
2022-07-26T19:27:36.237Z,27.25
2022-07-26T19:30:03.878Z,21.35
2022-07-26T19:35:01.066Z,15.88
2022-07-26T19:37:28.387Z,28.70
2022-07-26T19:39:59.038Z,22.83
2022-07-26T19:42:26.217Z,26.25
2022-07-26T19:44:53.625Z,25.70
2022-07-26T19:47:20.778Z,27.10
2022-07-26T19:49:47.930Z,23.52
2022-07-26T19:52:15.591Z,29.38
2022-07-26T19:54:42.841Z,28.52
2022-07-26T19:57:09.984Z,25.20
2022-07-26T19:59:37.463Z,26.88
2022-07-26T20:02:05.629Z,35.58
2022-07-26T20:04:33.083Z,28.55
2022-07-26T20:07:00.319Z,24.92
2022-07-26T20:09:27.645Z,27.45
2022-07-26T20:11:54.849Z,22.67
2022-07-26T20:14:22.375Z,25.13
2022-07-26T20:16:55.629Z,34.22
2022-07-26T20:19:24.059Z,23.88
2022-07-26T20:21:51.336Z,30.67
2022-07-26T20:24:18.988Z,30.08
2022-07-26T20:29:14.314Z,31.90
2022-07-26T20:31:41.716Z,29.83
2022-07-26T20:34:09.094Z,23.73
2022-07-26T20:36:36.296Z,25.92
2022-07-26T20:39:04.030Z,26.95
2022-07-26T20:41:33.883Z,25.55
2022-07-26T20:44:01.479Z,26.38
2022-07-26T20:46:28.724Z,33.22
2022-07-26T20:48:56.282Z,31.98
2022-07-26T20:51:23.618Z,32.15
2022-07-26T20:53:50.767Z,26.52
2022-07-26T20:56:18.121Z,26.27
2022-07-26T20:58:45.457Z,27.77
2022-07-26T21:01:14.207Z,32.42
2022-07-26T21:03:41.489Z,29.77
2022-07-26T21:06:08.756Z,30.67
2022-07-26T21:08:36.036Z,34.38
2022-07-26T21:11:03.544Z,26.30
2022-07-26T21:13:34.257Z,32.90
2022-07-26T21:16:01.465Z,36.03
2022-07-26T21:18:30.071Z,28.48
2022-07-26T21:20:58.022Z,28.17
2022-07-26T21:23:25.565Z,24.63
2022-07-26T21:25:58.046Z,33.85
2022-07-26T21:28:28.468Z,30.75
2022-07-26T21:30:55.838Z,32.85
2022-07-26T21:33:23.130Z,34.63
2022-07-26T21:35:50.344Z,36.53
2022-07-26T21:38:17.784Z,31.77
2022-07-26T21:40:45.144Z,27.63
2022-07-26T21:43:12.380Z,39.70
2022-07-26T21:45:40.165Z,31.63
2022-07-26T21:48:07.462Z,24.77
2022-07-26T21:50:34.799Z,27.05
2022-07-26T21:53:02.076Z,33.45
2022-07-26T21:55:29.309Z,32.47
2022-07-26T21:57:56.480Z,21.88
2022-07-26T22:00:23.767Z,35.03
2022-07-26T22:02:50.987Z,25.42
2022-07-26T22:05:37.078Z,34.75
2022-07-26T22:08:05.918Z,32.70
2022-07-26T22:10:33.890Z,25.05
2022-07-26T22:13:01.106Z,25.42
2022-07-26T22:15:28.624Z,27.20
2022-07-26T22:17:58.702Z,28.08
2022-07-26T22:20:25.956Z,27.98
2022-07-26T22:22:53.215Z,30.45
2022-07-26T22:25:20.663Z,29.83
2022-07-26T22:27:48.081Z,23.48
2022-07-26T22:30:18.131Z,40.55
2022-07-26T22:32:45.546Z,35.88
2022-07-26T22:35:13.246Z,36.47
2022-07-26T22:37:40.516Z,34.60
2022-07-26T22:40:07.974Z,37.05
2022-07-26T22:42:35.278Z,33.08
2022-07-26T22:45:03.341Z,25.63
2022-07-26T22:47:37.658Z,38.50
2022-07-26T22:50:06.297Z,42.78
2022-07-26T22:52:33.677Z,34.38
2022-07-26T22:55:01.301Z,23.02
2022-07-26T22:59:55.728Z,28.20
2022-07-26T23:02:24.727Z,29.67
2022-07-26T23:04:51.874Z,26.17
2022-07-26T23:07:19.884Z,30.45
2022-07-26T23:09:48.889Z,36.92
2022-07-26T23:12:16.028Z,31.92
2022-07-26T23:14:43.288Z,33.10
2022-07-26T23:17:10.712Z,26.73
2022-07-26T23:19:37.967Z,36.80
2022-07-26T23:22:05.092Z,24.83
2022-07-26T23:24:32.677Z,37.92
2022-07-26T23:29:27.112Z,24.20
2022-07-26T23:31:54.759Z,30.35
2022-07-26T23:36:49.026Z,32.15
2022-07-26T23:39:16.188Z,28.05
2022-07-26T23:41:43.431Z,29.42
2022-07-26T23:44:10.597Z,23.40
2022-07-26T23:46:38.110Z,22.27
2022-07-26T23:49:05.335Z,23.45
2022-07-26T23:51:32.649Z,24.75
2022-07-26T23:54:00.133Z,22.75
2022-07-26T23:56:27.305Z,30.42
2022-07-26T23:58:54.479Z,31.15
